createdAt,value
2024-02-20T00:00:06.309Z,19.13
2024-02-20T00:02:34.098Z,16.13
2024-02-20T00:05:00.890Z,15.80
2024-02-20T00:07:28.565Z,9.03
2024-02-20T00:09:55.424Z,11.27
2024-02-20T00:12:22.273Z,14.73
2024-02-20T00:14:49.066Z,8.93
2024-02-20T00:17:15.930Z,13.07
2024-02-20T00:19:44.567Z,19.07
2024-02-20T00:22:11.872Z,11.97
2024-02-20T00:24:38.736Z,10.43
2024-02-20T00:27:05.941Z,12.67
2024-02-20T00:29:32.848Z,8.23
2024-02-20T00:31:59.636Z,11.07
2024-02-20T00:34:27.107Z,9.43
2024-02-20T00:36:54.283Z,11.57
2024-02-20T00:39:21.199Z,9.47
2024-02-20T00:41:49.051Z,6.63
2024-02-20T00:44:15.968Z,14.47
2024-02-20T00:46:42.837Z,11.93
2024-02-20T00:49:10.143Z,15.13
2024-02-20T00:51:37.092Z,12.90
2024-02-20T00:54:05.315Z,18.90
2024-02-20T00:56:32.092Z,15.10
2024-02-20T00:58:58.879Z,13.90
2024-02-20T01:01:27.604Z,8.67
2024-02-20T01:03:55.009Z,20.50
2024-02-20T01:06:21.806Z,21.47
2024-02-20T01:08:48.582Z,15.67
2024-02-20T01:11:15.354Z,17.17
2024-02-20T01:13:42.778Z,19.73
2024-02-20T01:16:09.627Z,19.20
2024-02-20T01:18:38.917Z,15.13
2024-02-20T01:21:06.179Z,21.53
2024-02-20T01:23:32.880Z,16.50
2024-02-20T01:26:00.014Z,11.33
2024-02-20T01:28:26.856Z,17.97
2024-02-20T01:30:53.833Z,12.13
2024-02-20T01:33:20.708Z,16.57
2024-02-20T01:35:47.569Z,14.50
2024-02-20T01:38:14.854Z,13.13
2024-02-20T01:40:41.708Z,8.70
2024-02-20T01:43:08.714Z,6.43
2024-02-20T01:45:38.290Z,9.47
2024-02-20T01:48:06.167Z,15.20
2024-02-20T01:50:37.267Z,10.57
2024-02-20T01:53:05.857Z,21.03
2024-02-20T01:55:34.639Z,12.47
2024-02-20T01:58:01.976Z,15.00
2024-02-20T02:00:29.305Z,12.67
2024-02-20T02:02:56.600Z,15.40
2024-02-20T02:05:23.644Z,16.70
2024-02-20T02:07:51.093Z,14.63
2024-02-20T02:10:18.180Z,11.73
2024-02-20T02:12:45.061Z,9.77
2024-02-20T02:15:11.874Z,10.13
2024-02-20T02:17:39.037Z,8.93
2024-02-20T02:20:07.902Z,9.03
2024-02-20T02:22:35.579Z,13.47
2024-02-20T02:25:03.225Z,13.70
2024-02-20T02:27:30.172Z,11.73
2024-02-20T02:29:56.939Z,12.33
2024-02-20T02:32:23.765Z,13.93
2024-02-20T02:34:50.776Z,12.47
2024-02-20T02:37:17.659Z,10.67
2024-02-20T02:39:44.401Z,15.40
2024-02-20T02:42:11.236Z,12.30
2024-02-20T02:44:38.740Z,17.73
2024-02-20T02:47:10.356Z,16.83
2024-02-20T02:49:37.394Z,24.17
2024-02-20T02:52:04.550Z,15.83
2024-02-20T02:54:31.298Z,22.50
2024-02-20T02:56:58.827Z,27.60
2024-02-20T02:59:25.638Z,28.33
2024-02-20T03:01:52.566Z,36.30
2024-02-20T03:04:19.587Z,36.13
2024-02-20T03:06:47.259Z,32.50
2024-02-20T03:09:14.479Z,37.57
2024-02-20T03:11:41.897Z,32.93
2024-02-20T03:14:13.290Z,40.47
2024-02-20T03:16:40.261Z,38.63
2024-02-20T03:19:08.048Z,29.00
2024-02-20T03:21:37.336Z,27.93
2024-02-20T03:24:05.950Z,21.20
2024-02-20T03:26:32.669Z,22.30
2024-02-20T03:28:59.386Z,17.70
2024-02-20T03:31:26.188Z,17.37
2024-02-20T03:33:53.386Z,27.23
2024-02-20T03:36:20.357Z,30.03
2024-02-20T03:38:47.296Z,18.27
2024-02-20T03:41:14.161Z,26.63
2024-02-20T03:43:40.977Z,22.30
2024-02-20T03:46:08.970Z,23.93
2024-02-20T03:48:36.639Z,31.90
2024-02-20T03:51:03.510Z,20.53
2024-02-20T03:53:31.214Z,26.07
2024-02-20T03:55:57.998Z,21.27
2024-02-20T03:58:24.803Z,23.73
2024-02-20T04:00:51.654Z,17.57
2024-02-20T04:03:18.690Z,30.07
2024-02-20T04:05:45.510Z,21.37
2024-02-20T04:08:12.311Z,21.93
2024-02-20T04:10:39.217Z,25.10
2024-02-20T04:13:06.325Z,25.87
2024-02-20T04:15:33.393Z,17.53
2024-02-20T04:18:00.394Z,29.67
2024-02-20T04:20:27.270Z,27.23
2024-02-20T04:22:54.169Z,21.73
2024-02-20T04:25:21.956Z,28.50
2024-02-20T04:27:48.989Z,26.40
2024-02-20T04:30:15.965Z,23.00
2024-02-20T04:32:42.978Z,26.20
2024-02-20T04:35:11.171Z,22.57
2024-02-20T04:37:38.887Z,18.37
2024-02-20T04:40:08.563Z,26.57
2024-02-20T04:42:35.463Z,26.13
2024-02-20T04:45:02.911Z,30.07
2024-02-20T04:47:31.864Z,28.93
2024-02-20T04:49:59.035Z,23.70
2024-02-20T04:52:26.059Z,28.43
2024-02-20T04:54:54.255Z,32.10
2024-02-20T04:57:21.174Z,25.50
2024-02-20T04:59:49.171Z,31.30
2024-02-20T05:02:16.764Z,32.07
2024-02-20T05:04:44.244Z,17.80
2024-02-20T05:07:11.691Z,23.30
2024-02-20T05:09:38.667Z,28.73
2024-02-20T05:12:06.064Z,36.63
2024-02-20T05:14:32.906Z,38.03
2024-02-20T05:16:59.960Z,34.73
2024-02-20T05:19:26.832Z,40.70
2024-02-20T05:21:54.015Z,32.07
2024-02-20T05:24:21.016Z,34.07
2024-02-20T05:26:47.935Z,36.87
2024-02-20T05:29:14.692Z,22.20
2024-02-20T05:31:41.817Z,38.40
2024-02-20T05:34:09.241Z,32.60
2024-02-20T05:36:36.267Z,32.67
2024-02-20T05:39:03.619Z,24.87
2024-02-20T05:41:31.869Z,35.37
2024-02-20T05:44:00.440Z,47.07
2024-02-20T05:46:31.857Z,35.27
2024-02-20T05:48:59.800Z,31.77
2024-02-20T05:51:28.850Z,31.60
2024-02-20T05:53:55.856Z,43.03
2024-02-20T05:56:23.293Z,43.67
2024-02-20T05:58:50.697Z,46.47
2024-02-20T06:01:17.786Z,31.27
2024-02-20T06:03:45.858Z,37.83
2024-02-20T06:06:14.296Z,32.83
2024-02-20T06:08:48.331Z,43.53
2024-02-20T06:11:16.758Z,38.60
2024-02-20T06:13:46.384Z,42.43
2024-02-20T06:16:13.518Z,41.80
2024-02-20T06:18:40.492Z,49.23
2024-02-20T06:21:10.142Z,46.63
2024-02-20T06:23:41.180Z,39.67
2024-02-20T06:26:11.392Z,43.93
2024-02-20T06:28:40.685Z,44.80
2024-02-20T06:31:08.742Z,45.97
2024-02-20T06:33:36.054Z,49.07
2024-02-20T06:36:04.368Z,38.57
2024-02-20T06:38:33.802Z,45.27
2024-02-20T06:41:01.512Z,44.00
2024-02-20T06:43:28.617Z,49.43
2024-02-20T06:45:55.951Z,51.30
2024-02-20T06:48:23.122Z,53.23
2024-02-20T06:50:50.318Z,45.13
2024-02-20T06:53:17.072Z,35.03
2024-02-20T06:55:43.976Z,41.37
2024-02-20T06:58:10.950Z,44.47
2024-02-20T07:00:38.882Z,53.43
2024-02-20T07:03:07.237Z,49.60
2024-02-20T07:05:34.325Z,50.03
2024-02-20T07:08:01.747Z,45.67
2024-02-20T07:10:28.595Z,56.10
2024-02-20T07:12:58.138Z,49.50
2024-02-20T07:15:25.000Z,42.47
2024-02-20T07:17:51.769Z,39.10
2024-02-20T07:20:19.237Z,54.60
2024-02-20T07:22:48.740Z,36.93
2024-02-20T07:25:20.704Z,47.17
2024-02-20T07:27:48.173Z,38.40
2024-02-20T07:30:15.549Z,41.97
2024-02-20T07:32:44.072Z,36.10
2024-02-20T07:35:13.092Z,41.50
2024-02-20T07:37:41.217Z,42.33
2024-02-20T07:40:12.717Z,36.23
2024-02-20T07:42:40.717Z,37.47
2024-02-20T07:45:08.352Z,36.07
2024-02-20T07:47:36.650Z,41.77
2024-02-20T07:50:05.686Z,35.93
2024-02-20T07:52:33.316Z,51.28
2024-02-20T07:55:00.935Z,43.37
2024-02-20T07:57:27.975Z,37.33
2024-02-20T07:59:54.890Z,24.17
2024-02-20T08:02:21.799Z,37.07
2024-02-20T08:04:49.493Z,46.40
2024-02-20T08:07:16.843Z,44.67
2024-02-20T08:09:44.082Z,35.43
2024-02-20T08:12:11.515Z,42.00
2024-02-20T08:14:38.538Z,36.10
2024-02-20T08:17:05.594Z,31.27
2024-02-20T08:19:32.971Z,34.17
2024-02-20T08:22:07.471Z,30.67
2024-02-20T08:24:34.301Z,31.27
2024-02-20T08:27:02.917Z,33.27
2024-02-20T08:29:30.049Z,32.80
2024-02-20T08:31:59.763Z,33.17
2024-02-20T08:34:26.602Z,28.90
2024-02-20T08:36:53.404Z,26.90
2024-02-20T08:39:20.486Z,26.20
2024-02-20T08:41:47.228Z,37.13
2024-02-20T08:44:13.961Z,43.43
2024-02-20T08:46:40.860Z,29.50
2024-02-20T08:49:08.158Z,37.57
2024-02-20T08:51:35.129Z,43.60
2024-02-20T08:54:02.021Z,32.67
2024-02-20T08:56:28.816Z,34.57
2024-02-20T08:58:55.627Z,34.87
2024-02-20T09:01:26.232Z,37.10
2024-02-20T09:03:55.668Z,40.57
2024-02-20T09:06:23.068Z,30.10
2024-02-20T09:08:50.516Z,42.43
2024-02-20T09:11:17.438Z,34.73
2024-02-20T09:13:44.406Z,31.97
2024-02-20T09:16:11.794Z,27.63
2024-02-20T09:18:39.347Z,37.70
2024-02-20T09:21:08.133Z,37.80
2024-02-20T09:23:39.177Z,39.67
2024-02-20T09:26:07.133Z,42.13
2024-02-20T09:28:33.900Z,39.10
2024-02-20T09:31:00.796Z,35.10
2024-02-20T09:33:27.837Z,33.60
2024-02-20T09:35:54.741Z,43.40
2024-02-20T09:38:21.767Z,38.07
2024-02-20T09:40:50.950Z,35.50
2024-02-20T09:43:20.572Z,31.40
2024-02-20T09:45:50.973Z,28.43
2024-02-20T09:48:19.988Z,33.30
2024-02-20T09:50:49.332Z,26.83
2024-02-20T09:53:20.570Z,28.53
2024-02-20T09:55:53.193Z,36.70
2024-02-20T09:58:20.526Z,23.83
2024-02-20T10:00:47.482Z,29.63
2024-02-20T10:03:15.261Z,37.47
2024-02-20T10:05:48.575Z,34.60
2024-02-20T10:08:15.520Z,37.83
2024-02-20T10:10:46.975Z,31.57
2024-02-20T10:13:13.942Z,28.03
2024-02-20T10:15:40.946Z,25.80
2024-02-20T10:18:08.420Z,20.40
2024-02-20T10:20:35.577Z,23.33
2024-02-20T10:23:10.752Z,21.47
2024-02-20T10:25:38.311Z,25.50
2024-02-20T10:28:08.852Z,24.60
2024-02-20T10:30:36.253Z,24.90
2024-02-20T10:33:03.624Z,27.67
2024-02-20T10:35:30.722Z,24.70
2024-02-20T10:38:04.086Z,22.10
2024-02-20T10:40:31.765Z,19.27
2024-02-20T10:42:59.343Z,22.07
2024-02-20T10:45:27.401Z,29.07
2024-02-20T10:47:57.285Z,31.57
2024-02-20T10:50:24.921Z,28.37
2024-02-20T10:52:54.633Z,34.17
2024-02-20T10:55:31.168Z,30.83
2024-02-20T10:58:04.796Z,25.93
2024-02-20T11:00:36.294Z,32.53
2024-02-20T11:03:06.212Z,22.13
2024-02-20T11:05:33.691Z,26.83
2024-02-20T11:08:12.315Z,25.30
2024-02-20T11:10:41.368Z,24.67
2024-02-20T11:13:22.019Z,32.30
2024-02-20T11:15:50.354Z,21.33
2024-02-20T11:18:19.892Z,23.73
2024-02-20T11:21:07.908Z,25.77
2024-02-20T11:23:36.706Z,20.87
2024-02-20T11:26:11.510Z,30.10
2024-02-20T11:28:39.241Z,31.33
2024-02-20T11:31:07.072Z,30.90
2024-02-20T11:33:35.157Z,23.43
2024-02-20T11:36:02.430Z,26.93
2024-02-20T11:38:29.376Z,27.90
2024-02-20T11:40:57.297Z,18.43
2024-02-20T11:43:25.392Z,29.27
2024-02-20T11:45:59.268Z,31.67
2024-02-20T11:48:26.272Z,33.13
2024-02-20T11:51:00.678Z,35.93
2024-02-20T11:53:27.870Z,41.83
2024-02-20T11:55:56.466Z,38.83
2024-02-20T11:58:27.600Z,37.57
2024-02-20T12:01:05.063Z,35.87
2024-02-20T12:03:38.301Z,31.07
2024-02-20T12:06:10.344Z,34.03
2024-02-20T12:08:55.396Z,38.20
2024-02-20T12:11:28.018Z,39.40
2024-02-20T12:13:55.660Z,33.17
2024-02-20T12:16:26.629Z,36.30
2024-02-20T12:18:55.052Z,43.63
2024-02-20T12:21:29.721Z,30.10
2024-02-20T12:23:58.336Z,43.70
2024-02-20T12:26:27.206Z,32.50
2024-02-20T12:28:55.984Z,40.47
2024-02-20T12:31:24.822Z,46.13
2024-02-20T12:33:52.267Z,35.80
2024-02-20T12:36:20.375Z,29.97
2024-02-20T12:38:47.486Z,47.77
2024-02-20T12:41:14.490Z,37.90
2024-02-20T12:43:41.300Z,44.23
2024-02-20T12:46:08.387Z,35.93
2024-02-20T12:48:36.339Z,40.07
2024-02-20T12:51:03.400Z,41.60
2024-02-20T12:53:30.824Z,29.73
2024-02-20T12:55:58.200Z,36.97
2024-02-20T12:58:27.775Z,37.37
2024-02-20T13:00:54.655Z,44.63
2024-02-20T13:03:23.985Z,33.80
2024-02-20T13:05:50.961Z,38.90
2024-02-20T13:08:17.816Z,31.57
2024-02-20T13:10:45.032Z,37.33
2024-02-20T13:13:12.134Z,32.57
2024-02-20T13:15:39.271Z,34.17
2024-02-20T13:18:06.253Z,31.63
2024-02-20T13:20:34.284Z,28.00
2024-02-20T13:23:02.169Z,51.47
2024-02-20T13:25:29.323Z,34.93
2024-02-20T13:27:56.710Z,37.87
2024-02-20T13:30:23.613Z,28.67
2024-02-20T13:32:50.660Z,25.93
2024-02-20T13:35:19.647Z,35.50
2024-02-20T13:37:50.069Z,30.13
2024-02-20T13:40:19.227Z,43.90
2024-02-20T13:42:46.536Z,34.60
2024-02-20T13:45:14.991Z,43.13
2024-02-20T13:47:42.063Z,37.53
2024-02-20T13:50:09.576Z,39.73
2024-02-20T13:52:36.650Z,33.30
2024-02-20T13:55:03.711Z,38.70
2024-02-20T13:57:30.893Z,39.77
2024-02-20T13:59:57.772Z,38.73
2024-02-20T14:02:24.604Z,35.03
2024-02-20T14:04:51.429Z,33.73
2024-02-20T14:07:21.228Z,44.27
2024-02-20T14:09:48.276Z,36.83
2024-02-20T14:12:15.924Z,34.53
2024-02-20T14:14:42.684Z,38.80
2024-02-20T14:17:09.618Z,31.80
2024-02-20T14:19:36.849Z,34.93
2024-02-20T14:22:05.003Z,41.13
2024-02-20T14:24:32.143Z,31.83
2024-02-20T14:27:00.817Z,33.17
2024-02-20T14:29:27.765Z,38.57
2024-02-20T14:31:54.780Z,38.30
2024-02-20T14:34:22.026Z,32.40
2024-02-20T14:36:49.226Z,37.73
2024-02-20T14:39:18.291Z,36.27
2024-02-20T14:41:46.651Z,32.57
2024-02-20T14:44:13.445Z,31.63
2024-02-20T14:46:40.476Z,30.27
2024-02-20T14:49:08.061Z,28.33
2024-02-20T14:51:34.963Z,33.10
2024-02-20T14:54:01.883Z,39.57
2024-02-20T14:56:28.691Z,43.57
2024-02-20T14:58:56.032Z,32.17
2024-02-20T15:01:25.020Z,42.13
2024-02-20T15:03:52.252Z,34.60
2024-02-20T15:06:19.498Z,42.13
2024-02-20T15:08:48.580Z,40.53
2024-02-20T15:11:16.889Z,34.03
2024-02-20T15:13:43.857Z,44.17
2024-02-20T15:16:12.435Z,31.27
2024-02-20T15:18:40.696Z,43.93
2024-02-20T15:21:07.617Z,35.17
2024-02-20T15:23:34.598Z,25.00
2024-02-20T15:26:08.016Z,46.37
2024-02-20T15:28:36.044Z,36.53
2024-02-20T15:33:34.963Z,31.90
2024-02-20T15:36:02.762Z,28.10
2024-02-20T15:38:29.728Z,42.33
2024-02-20T15:40:56.699Z,31.87
2024-02-20T15:43:24.886Z,33.20
2024-02-20T15:45:51.637Z,32.50
2024-02-20T15:48:18.847Z,28.23
2024-02-20T15:50:47.836Z,31.33
2024-02-20T15:53:16.849Z,44.80
2024-02-20T15:55:47.785Z,34.27
2024-02-20T15:58:18.711Z,30.97
2024-02-20T16:00:46.006Z,37.73
2024-02-20T16:03:13.899Z,33.63
2024-02-20T16:05:41.186Z,30.07
2024-02-20T16:08:09.739Z,32.27
2024-02-20T16:10:37.178Z,33.40
2024-02-20T16:13:05.908Z,37.50
2024-02-20T16:15:32.936Z,39.80
2024-02-20T16:18:01.032Z,40.20
2024-02-20T16:20:29.079Z,45.17
2024-02-20T16:22:57.407Z,40.97
2024-02-20T16:25:25.047Z,30.10
2024-02-20T16:27:51.891Z,38.77
2024-02-20T16:30:18.759Z,36.07
2024-02-20T16:32:45.867Z,35.47
2024-02-20T16:35:15.355Z,30.57
2024-02-20T16:37:42.444Z,31.03
2024-02-20T16:40:11.019Z,30.83
2024-02-20T16:42:38.478Z,48.03
2024-02-20T16:45:06.151Z,28.40
2024-02-20T16:47:35.032Z,32.77
2024-02-20T16:50:02.995Z,34.57
2024-02-20T16:52:30.244Z,40.60
2024-02-20T16:54:57.712Z,41.53
2024-02-20T16:57:25.009Z,39.17
2024-02-20T16:59:54.637Z,32.27
2024-02-20T17:02:21.500Z,34.57
2024-02-20T17:04:48.853Z,38.63
2024-02-20T17:07:20.041Z,39.73
2024-02-20T17:09:47.394Z,26.30
2024-02-20T17:12:14.976Z,38.90
2024-02-20T17:14:43.098Z,33.43
2024-02-20T17:17:10.289Z,40.20
2024-02-20T17:19:39.157Z,36.37
2024-02-20T17:22:06.415Z,35.60
2024-02-20T17:24:33.386Z,42.57
2024-02-20T17:27:00.530Z,34.13
2024-02-20T17:29:28.620Z,33.70
2024-02-20T17:31:56.032Z,27.70
2024-02-20T17:34:24.029Z,32.53
2024-02-20T17:36:52.225Z,34.70
2024-02-20T17:39:19.217Z,30.17
2024-02-20T17:41:45.902Z,34.40
2024-02-20T17:44:12.666Z,39.07
2024-02-20T17:46:39.742Z,33.93
2024-02-20T17:49:06.797Z,28.53
2024-02-20T17:51:37.209Z,38.70
2024-02-20T17:54:06.673Z,33.93
2024-02-20T17:56:35.799Z,39.17
2024-02-20T17:59:02.854Z,31.37
2024-02-20T18:01:29.819Z,40.40
2024-02-20T18:03:56.649Z,31.90
2024-02-20T18:06:23.412Z,37.93
2024-02-20T18:08:50.304Z,31.53
2024-02-20T18:11:19.317Z,31.43
2024-02-20T18:13:51.852Z,34.77
2024-02-20T18:16:19.281Z,47.17
2024-02-20T18:18:46.878Z,36.07
2024-02-20T18:21:13.749Z,36.10
2024-02-20T18:23:40.518Z,36.20
2024-02-20T18:26:07.656Z,36.33
2024-02-20T18:28:35.617Z,32.57
2024-02-20T18:31:02.406Z,34.27
2024-02-20T18:33:29.199Z,30.00
2024-02-20T18:35:57.419Z,30.20
2024-02-20T18:38:26.989Z,46.47
2024-02-20T18:40:55.063Z,33.80
2024-02-20T18:43:22.446Z,37.03
2024-02-20T18:45:49.605Z,38.17
2024-02-20T18:48:17.068Z,43.20
2024-02-20T18:50:43.894Z,33.63
2024-02-20T18:53:11.966Z,34.90
2024-02-20T18:55:38.773Z,41.93
2024-02-20T18:58:05.586Z,40.37
2024-02-20T19:00:33.091Z,28.93
2024-02-20T19:03:00.249Z,30.57
2024-02-20T19:05:27.258Z,35.53
2024-02-20T19:07:54.138Z,33.97
2024-02-20T19:10:20.983Z,42.63
2024-02-20T19:12:47.793Z,31.73
2024-02-20T19:15:14.693Z,31.93
2024-02-20T19:17:41.630Z,28.90
2024-02-20T19:20:09.623Z,29.53
2024-02-20T19:22:37.745Z,32.20
2024-02-20T19:25:05.452Z,31.27
2024-02-20T19:27:33.304Z,31.23
2024-02-20T19:30:00.330Z,34.97
2024-02-20T19:32:27.234Z,33.43
2024-02-20T19:34:54.069Z,36.73
2024-02-20T19:37:23.133Z,40.47
2024-02-20T19:39:49.970Z,32.03
2024-02-20T19:42:16.846Z,36.73
2024-02-20T19:44:43.756Z,38.37
2024-02-20T19:47:10.613Z,41.87
2024-02-20T19:49:37.803Z,35.50
2024-02-20T19:52:04.778Z,35.83
2024-02-20T19:54:31.511Z,32.03
2024-02-20T19:56:59.708Z,39.20
2024-02-20T19:59:26.440Z,32.77
2024-02-20T20:01:53.460Z,38.37
2024-02-20T20:04:20.708Z,35.93
2024-02-20T20:06:47.584Z,30.13
2024-02-20T20:09:15.627Z,38.77
2024-02-20T20:11:44.041Z,35.23
2024-02-20T20:14:11.633Z,34.73
2024-02-20T20:16:41.815Z,37.07
2024-02-20T20:19:09.526Z,36.33
2024-02-20T20:21:37.067Z,33.53
2024-02-20T20:24:13.685Z,38.03
2024-02-20T20:26:45.587Z,36.10
2024-02-20T20:29:12.360Z,39.07
2024-02-20T20:31:40.718Z,45.30
2024-02-20T20:34:07.796Z,35.20
2024-02-20T20:36:36.850Z,35.13
2024-02-20T20:39:06.587Z,35.33
2024-02-20T20:41:35.346Z,37.33
2024-02-20T20:44:02.257Z,39.33
2024-02-20T20:46:29.625Z,33.20
2024-02-20T20:48:57.042Z,43.57
2024-02-20T20:51:24.136Z,37.80
2024-02-20T20:53:51.030Z,32.53
2024-02-20T20:56:17.887Z,29.00
2024-02-20T20:58:44.867Z,36.73
2024-02-20T21:01:12.044Z,37.63
2024-02-20T21:03:39.159Z,35.03
2024-02-20T21:06:06.206Z,33.70
2024-02-20T21:08:33.125Z,40.07
2024-02-20T21:11:00.371Z,44.10
2024-02-20T21:13:27.460Z,35.67
2024-02-20T21:15:54.865Z,38.53
2024-02-20T21:18:21.806Z,46.63
2024-02-20T21:20:49.018Z,38.90
2024-02-20T21:23:17.135Z,32.50
2024-02-20T21:25:47.024Z,37.70
2024-02-20T21:28:13.943Z,41.37
2024-02-20T21:30:44.460Z,40.50
2024-02-20T21:33:11.626Z,29.57
2024-02-20T21:35:38.568Z,34.83
2024-02-20T21:38:07.136Z,33.63
2024-02-20T21:40:34.079Z,45.07
2024-02-20T21:43:00.855Z,44.13
2024-02-20T21:45:27.590Z,51.73
2024-02-20T21:47:56.090Z,35.40
2024-02-20T21:50:23.296Z,47.37
2024-02-20T21:52:52.337Z,40.77
2024-02-20T21:55:19.816Z,41.10
2024-02-20T21:57:46.990Z,49.73
2024-02-20T22:00:14.477Z,46.63
2024-02-20T22:02:41.293Z,40.63
2024-02-20T22:05:09.348Z,54.53
2024-02-20T22:07:36.401Z,51.60
2024-02-20T22:10:03.561Z,50.80
2024-02-20T22:12:30.556Z,52.93
2024-02-20T22:14:59.747Z,47.97
2024-02-20T22:17:26.591Z,55.17
2024-02-20T22:19:53.658Z,50.20
2024-02-20T22:22:20.766Z,48.27
2024-02-20T22:24:48.604Z,50.87
2024-02-20T22:27:15.442Z,48.20
2024-02-20T22:29:42.284Z,48.37
2024-02-20T22:32:09.469Z,43.87
2024-02-20T22:34:38.030Z,48.97
2024-02-20T22:37:05.129Z,43.07
2024-02-20T22:39:31.876Z,45.10
2024-02-20T22:41:58.678Z,45.53
2024-02-20T22:44:25.473Z,40.47
2024-02-20T22:46:52.366Z,45.77
2024-02-20T22:49:19.392Z,40.67
2024-02-20T22:51:46.752Z,44.93
2024-02-20T22:54:14.003Z,46.33
2024-02-20T22:56:41.041Z,47.77
2024-02-20T22:59:08.008Z,46.03
2024-02-20T23:01:35.217Z,53.33
2024-02-20T23:04:02.193Z,42.77
2024-02-20T23:06:29.388Z,48.63
2024-02-20T23:08:56.466Z,54.93
2024-02-20T23:11:23.807Z,49.00
2024-02-20T23:13:50.781Z,48.10
2024-02-20T23:16:17.576Z,44.37
2024-02-20T23:18:44.477Z,47.17
2024-02-20T23:21:14.116Z,57.07
2024-02-20T23:23:41.018Z,45.93
2024-02-20T23:26:07.797Z,46.53
2024-02-20T23:28:35.561Z,49.27
2024-02-20T23:31:04.099Z,44.93
2024-02-20T23:33:32.790Z,46.87
2024-02-20T23:35:59.893Z,43.67
2024-02-20T23:38:26.949Z,51.87
2024-02-20T23:40:54.880Z,36.20
2024-02-20T23:43:22.412Z,52.23
2024-02-20T23:45:49.295Z,47.80
2024-02-20T23:48:16.324Z,41.10
2024-02-20T23:50:43.157Z,38.33
2024-02-20T23:53:10.127Z,35.47
2024-02-20T23:55:37.083Z,45.37
2024-02-20T23:58:04.035Z,50.40
